Aérodrome :
LOGIN :

S'inscrire | Disclaimer

   EN    FR    IT 

 










Légende :    VFR   VFR Marginal   IFR   IFR Intensif   IFR Très Intensif
Visi : 
Plafond : 
>= 8 km
>= 3000ft
5 à 8 km
1000 à 3000 ft
1500m à 5 km
500 à 1000 ft
800 à 1500m
200 à 500 ft
< 800m
< 200 ft
Symboles :   Orages  Brouillard  Fortes neiges  Fortes précipitations  Vent > 20 kt
SIGMETs :   Divers  Orages  Givrage  Turbulence  Onde Orograph.  Cendres Volcan.






- Altitude de l'aérodrome : 184 ft
- Code IATA : BRU


EBBR - Bruxelles

DERNIER METAR :
  • 252250Z 12004KT 090V150 0400 R25L/0750N R25R/1000U R01/0600N FG OVC001 01/01 Q1018 NOSIG

METARs EXPIRÉS :
  • 252220Z 12004KT 0400 R25L/0650N R25R/1100U R01/0650N FG OVC001 01/01 Q1018 NOSIG
  • 252150Z 13003KT 0350 R25L/0700N R25R/1100N R01/0650N FG OVC001 02/01 Q1019 NOSIG
  • 252120Z 12004KT 0350 R25L/0750N R25R/1000N R01/0550N FG OVC001 02/01 Q1019 NOSIG
  • 252050Z 12004KT 090V150 0300 R25L/0600N R25R/0800U R01/0550N FG OVC001 02/01 Q1019 NOSIG
  • 252020Z 13003KT 100V160 0250 R25L/0600N R25R/0900N R01/0600N FG OVC001 02/02 Q1019 NOSIG

TAF TAF EBBR
Valide du 25 à 18h jusqu'au 27 à 00h UTC


251713Z 2518/2624 14003KT 1200 BR BKN002
TEMPO 2518/2524 0500 FG BKN001
BECMG 2603/2605 6000 NSW SCT040
BECMG 2610/2612 20010KT
PROB40
TEMPO 2612/2620 SCT010 BKN014



MET'MAP, la Météo Aéronautique d'un coup d'oeil ! - Copyright ORBIFLY Décembre 2007 - Disclaimer

ORBIFLY MET'MAP TEAM :

Programmation & Développement : Alexandra Zaïnal
Sur une idée originale de : Baudouin d'Aumeries
Assistance à la programmation : Marc-Olivier Méhu
Soutien technique & logistique : Manuel Goepfert

Contact : metmap@orbifly.com




SOURCES & CREDITS :

   NOAA